sensor_id;sensor_type;location;lat;lon;timestamp;P1;durP1;ratioP1;P2;durP2;ratioP2
35326;SDS011;21436;52.348;20.928;2023-02-28T00:01:31;63.50;;;26.92;;
35326;SDS011;21436;52.348;20.928;2023-02-28T00:04:00;60.72;;;24.67;;
35326;SDS011;21436;52.348;20.928;2023-02-28T00:06:27;54.42;;;22.25;;
35326;SDS011;21436;52.348;20.928;2023-02-28T00:08:55;58.63;;;23.58;;
35326;SDS011;21436;52.348;20.928;2023-02-28T00:11:23;60.10;;;23.08;;
35326;SDS011;21436;52.348;20.928;2023-02-28T00:13:54;48.85;;;21.50;;
35326;SDS011;21436;52.348;20.928;2023-02-28T00:16:21;54.50;;;22.38;;
35326;SDS011;21436;52.348;20.928;2023-02-28T00:18:50;54.95;;;21.40;;
35326;SDS011;21436;52.348;20.928;2023-02-28T00:21:18;55.28;;;22.92;;
35326;SDS011;21436;52.348;20.928;2023-02-28T00:23:47;59.45;;;23.52;;
35326;SDS011;21436;52.348;20.928;2023-02-28T00:26:15;59.10;;;22.35;;
35326;SDS011;21436;52.348;20.928;2023-02-28T00:28:45;56.92;;;23.30;;
35326;SDS011;21436;52.348;20.928;2023-02-28T00:31:12;55.65;;;22.42;;
35326;SDS011;21436;52.348;20.928;2023-02-28T00:33:40;59.13;;;22.30;;
35326;SDS011;21436;52.348;20.928;2023-02-28T00:36:08;56.88;;;23.38;;
35326;SDS011;21436;52.348;20.928;2023-02-28T00:38:38;63.83;;;24.35;;
35326;SDS011;21436;52.348;20.928;2023-02-28T00:41:06;66.05;;;24.55;;
35326;SDS011;21436;52.348;20.928;2023-02-28T00:43:35;57.40;;;24.10;;
35326;SDS011;21436;52.348;20.928;2023-02-28T00:46:03;62.08;;;22.92;;
35326;SDS011;21436;52.348;20.928;2023-02-28T00:48:32;60.35;;;24.15;;
35326;SDS011;21436;52.348;20.928;2023-02-28T00:50:59;61.28;;;24.35;;
35326;SDS011;21436;52.348;20.928;2023-02-28T00:53:28;69.60;;;28.17;;
35326;SDS011;21436;52.348;20.928;2023-02-28T00:55:56;82.45;;;31.30;;
35326;SDS011;21436;52.348;20.928;2023-02-28T00:58:26;95.82;;;32.08;;
35326;SDS011;21436;52.348;20.928;2023-02-28T01:00:53;84.07;;;28.83;;
35326;SDS011;21436;52.348;20.928;2023-02-28T01:03:21;83.78;;;28.20;;
35326;SDS011;21436;52.348;20.928;2023-02-28T01:05:50;89.45;;;31.45;;
35326;SDS011;21436;52.348;20.928;2023-02-28T01:08:20;97.70;;;30.27;;
35326;SDS011;21436;52.348;20.928;2023-02-28T01:10:49;83.40;;;30.60;;
35326;SDS011;21436;52.348;20.928;2023-02-28T01:13:17;79.53;;;29.70;;
35326;SDS011;21436;52.348;20.928;2023-02-28T01:15:46;89.00;;;28.80;;
35326;SDS011;21436;52.348;20.928;2023-02-28T01:18:19;82.93;;;29.83;;
35326;SDS011;21436;52.348;20.928;2023-02-28T01:20:48;93.28;;;30.50;;
35326;SDS011;21436;52.348;20.928;2023-02-28T01:23:16;89.80;;;27.83;;
35326;SDS011;21436;52.348;20.928;2023-02-28T01:25:43;83.75;;;28.65;;
35326;SDS011;21436;52.348;20.928;2023-02-28T01:28:11;86.00;;;29.23;;
35326;SDS011;21436;52.348;20.928;2023-02-28T01:30:38;77.30;;;29.27;;
35326;SDS011;21436;52.348;20.928;2023-02-28T01:33:06;80.70;;;30.10;;
35326;SDS011;21436;52.348;20.928;2023-02-28T01:35:34;91.00;;;30.80;;
35326;SDS011;21436;52.348;20.928;2023-02-28T01:38:03;79.25;;;30.13;;
35326;SDS011;21436;52.348;20.928;2023-02-28T01:40:47;93.10;;;31.20;;
35326;SDS011;21436;52.348;20.928;2023-02-28T01:43:28;84.05;;;31.95;;
35326;SDS011;21436;52.348;20.928;2023-02-28T01:45:57;89.90;;;33.40;;
35326;SDS011;21436;52.348;20.928;2023-02-28T01:48:26;85.35;;;30.85;;
35326;SDS011;21436;52.348;20.928;2023-02-28T01:50:56;84.65;;;30.73;;
35326;SDS011;21436;52.348;20.928;2023-02-28T01:53:36;85.97;;;30.63;;
35326;SDS011;21436;52.348;20.928;2023-02-28T01:56:06;81.47;;;31.48;;
35326;SDS011;21436;52.348;20.928;2023-02-28T01:58:34;81.03;;;31.42;;
35326;SDS011;21436;52.348;20.928;2023-02-28T02:01:02;96.82;;;33.30;;
35326;SDS011;21436;52.348;20.928;2023-02-28T02:03:30;100.95;;;34.05;;
35326;SDS011;21436;52.348;20.928;2023-02-28T02:05:58;123.75;;;39.00;;
35326;SDS011;21436;52.348;20.928;2023-02-28T02:08:26;114.70;;;36.47;;
35326;SDS011;21436;52.348;20.928;2023-02-28T02:10:56;99.32;;;32.88;;
35326;SDS011;21436;52.348;20.928;2023-02-28T02:24:43;148.95;;;40.45;;
35326;SDS011;21436;52.348;20.928;2023-02-28T02:32:38;138.57;;;42.90;;
35326;SDS011;21436;52.348;20.928;2023-02-28T02:35:34;144.55;;;42.75;;
35326;SDS011;21436;52.348;20.928;2023-02-28T02:43:53;135.43;;;42.63;;
35326;SDS011;21436;52.348;20.928;2023-02-28T02:46:37;132.82;;;41.03;;
35326;SDS011;21436;52.348;20.928;2023-02-28T02:49:56;140.98;;;42.70;;
35326;SDS011;21436;52.348;20.928;2023-02-28T02:52:29;145.70;;;43.80;;
35326;SDS011;21436;52.348;20.928;2023-02-28T02:55:04;149.35;;;45.08;;
35326;SDS011;21436;52.348;20.928;2023-02-28T02:57:38;148.90;;;42.92;;
35326;SDS011;21436;52.348;20.928;2023-02-28T03:00:18;156.88;;;46.45;;
35326;SDS011;21436;52.348;20.928;2023-02-28T03:02:48;157.07;;;46.65;;
35326;SDS011;21436;52.348;20.928;2023-02-28T03:05:19;148.95;;;44.17;;
35326;SDS011;21436;52.348;20.928;2023-02-28T03:10:31;145.65;;;41.88;;
35326;SDS011;21436;52.348;20.928;2023-02-28T03:18:34;150.35;;;46.05;;
35326;SDS011;21436;52.348;20.928;2023-02-28T03:24:09;173.40;;;50.25;;
35326;SDS011;21436;52.348;20.928;2023-02-28T03:26:51;165.63;;;50.22;;
35326;SDS011;21436;52.348;20.928;2023-02-28T03:29:23;164.93;;;47.08;;
35326;SDS011;21436;52.348;20.928;2023-02-28T03:31:59;159.35;;;47.00;;
35326;SDS011;21436;52.348;20.928;2023-02-28T03:34:56;166.98;;;46.88;;
35326;SDS011;21436;52.348;20.928;2023-02-28T03:37:28;156.68;;;45.90;;
35326;SDS011;21436;52.348;20.928;2023-02-28T03:39:58;164.80;;;47.92;;
35326;SDS011;21436;52.348;20.928;2023-02-28T03:42:28;170.68;;;50.88;;
35326;SDS011;21436;52.348;20.928;2023-02-28T03:44:58;181.75;;;49.90;;
35326;SDS011;21436;52.348;20.928;2023-02-28T03:47:29;155.70;;;49.60;;
35326;SDS011;21436;52.348;20.928;2023-02-28T03:50:23;158.13;;;48.03;;
35326;SDS011;21436;52.348;20.928;2023-02-28T03:55:29;146.80;;;43.80;;
35326;SDS011;21436;52.348;20.928;2023-02-28T04:01:08;140.98;;;45.95;;
35326;SDS011;21436;52.348;20.928;2023-02-28T04:03:38;138.82;;;44.05;;
35326;SDS011;21436;52.348;20.928;2023-02-28T04:06:07;148.45;;;44.75;;
35326;SDS011;21436;52.348;20.928;2023-02-28T04:08:40;147.70;;;44.60;;
35326;SDS011;21436;52.348;20.928;2023-02-28T04:14:00;136.07;;;43.35;;
35326;SDS011;21436;52.348;20.928;2023-02-28T04:16:28;142.25;;;41.67;;
35326;SDS011;21436;52.348;20.928;2023-02-28T04:19:05;127.80;;;40.83;;
35326;SDS011;21436;52.348;20.928;2023-02-28T04:21:34;126.77;;;40.30;;
35326;SDS011;21436;52.348;20.928;2023-02-28T04:24:03;122.32;;;39.25;;
35326;SDS011;21436;52.348;20.928;2023-02-28T04:26:32;118.45;;;40.28;;
35326;SDS011;21436;52.348;20.928;2023-02-28T04:29:01;122.68;;;38.03;;
35326;SDS011;21436;52.348;20.928;2023-02-28T04:31:30;122.35;;;39.75;;
35326;SDS011;21436;52.348;20.928;2023-02-28T04:33:58;127.95;;;40.22;;
35326;SDS011;21436;52.348;20.928;2023-02-28T04:36:26;134.98;;;41.63;;
35326;SDS011;21436;52.348;20.928;2023-02-28T04:38:54;131.80;;;40.63;;
35326;SDS011;21436;52.348;20.928;2023-02-28T04:41:22;111.28;;;40.53;;
35326;SDS011;21436;52.348;20.928;2023-02-28T04:43:52;117.50;;;40.83;;
35326;SDS011;21436;52.348;20.928;2023-02-28T04:46:20;140.23;;;42.80;;
35326;SDS011;21436;52.348;20.928;2023-02-28T04:48:47;118.22;;;40.45;;
35326;SDS011;21436;52.348;20.928;2023-02-28T04:51:16;125.75;;;39.33;;
35326;SDS011;21436;52.348;20.928;2023-02-28T04:53:44;120.28;;;41.88;;
35326;SDS011;21436;52.348;20.928;2023-02-28T04:56:13;123.15;;;39.58;;
35326;SDS011;21436;52.348;20.928;2023-02-28T04:58:42;120.97;;;40.30;;
35326;SDS011;21436;52.348;20.928;2023-02-28T05:03:58;122.05;;;41.78;;
35326;SDS011;21436;52.348;20.928;2023-02-28T05:06:28;117.15;;;41.05;;
35326;SDS011;21436;52.348;20.928;2023-02-28T05:08:58;137.90;;;42.08;;
35326;SDS011;21436;52.348;20.928;2023-02-28T05:11:29;114.43;;;41.58;;
35326;SDS011;21436;52.348;20.928;2023-02-28T05:14:05;134.80;;;42.58;;
35326;SDS011;21436;52.348;20.928;2023-02-28T05:16:36;132.23;;;42.15;;
35326;SDS011;21436;52.348;20.928;2023-02-28T05:19:04;119.32;;;39.10;;
35326;SDS011;21436;52.348;20.928;2023-02-28T05:21:33;130.02;;;41.63;;
35326;SDS011;21436;52.348;20.928;2023-02-28T05:24:06;112.30;;;40.88;;
35326;SDS011;21436;52.348;20.928;2023-02-28T05:26:37;118.40;;;40.00;;
35326;SDS011;21436;52.348;20.928;2023-02-28T05:29:06;113.75;;;39.00;;
35326;SDS011;21436;52.348;20.928;2023-02-28T05:31:34;119.43;;;42.13;;
35326;SDS011;21436;52.348;20.928;2023-02-28T05:34:02;110.55;;;39.20;;
35326;SDS011;21436;52.348;20.928;2023-02-28T05:36:31;109.18;;;37.85;;
35326;SDS011;21436;52.348;20.928;2023-02-28T05:38:58;113.00;;;40.50;;
35326;SDS011;21436;52.348;20.928;2023-02-28T05:41:26;111.25;;;39.08;;
35326;SDS011;21436;52.348;20.928;2023-02-28T05:43:54;129.65;;;41.13;;
35326;SDS011;21436;52.348;20.928;2023-02-28T05:46:22;120.93;;;39.83;;
35326;SDS011;21436;52.348;20.928;2023-02-28T05:48:49;115.60;;;39.70;;
35326;SDS011;21436;52.348;20.928;2023-02-28T05:51:17;116.78;;;39.20;;
35326;SDS011;21436;52.348;20.928;2023-02-28T05:53:44;124.80;;;39.85;;
35326;SDS011;21436;52.348;20.928;2023-02-28T05:56:13;114.00;;;38.65;;
35326;SDS011;21436;52.348;20.928;2023-02-28T05:58:40;105.30;;;34.55;;
35326;SDS011;21436;52.348;20.928;2023-02-28T06:04:03;113.18;;;34.10;;
35326;SDS011;21436;52.348;20.928;2023-02-28T06:06:32;105.05;;;36.95;;
35326;SDS011;21436;52.348;20.928;2023-02-28T06:09:03;98.45;;;35.35;;
35326;SDS011;21436;52.348;20.928;2023-02-28T06:11:32;106.05;;;38.72;;
35326;SDS011;21436;52.348;20.928;2023-02-28T06:14:01;125.03;;;42.17;;
35326;SDS011;21436;52.348;20.928;2023-02-28T06:16:29;139.07;;;45.88;;
35326;SDS011;21436;52.348;20.928;2023-02-28T06:18:59;118.57;;;43.42;;
35326;SDS011;21436;52.348;20.928;2023-02-28T06:21:27;124.22;;;43.58;;
35326;SDS011;21436;52.348;20.928;2023-02-28T06:23:56;123.45;;;39.45;;
35326;SDS011;21436;52.348;20.928;2023-02-28T06:26:25;95.93;;;36.28;;
35326;SDS011;21436;52.348;20.928;2023-02-28T06:28:52;106.13;;;35.53;;
35326;SDS011;21436;52.348;20.928;2023-02-28T06:31:21;94.05;;;37.35;;
35326;SDS011;21436;52.348;20.928;2023-02-28T06:33:49;95.53;;;35.60;;
35326;SDS011;21436;52.348;20.928;2023-02-28T06:36:17;78.43;;;32.58;;
35326;SDS011;21436;52.348;20.928;2023-02-28T06:38:45;91.80;;;35.13;;
35326;SDS011;21436;52.348;20.928;2023-02-28T06:41:15;85.95;;;32.47;;
35326;SDS011;21436;52.348;20.928;2023-02-28T06:43:43;78.68;;;32.22;;
35326;SDS011;21436;52.348;20.928;2023-02-28T06:46:12;82.43;;;33.33;;
35326;SDS011;21436;52.348;20.928;2023-02-28T06:48:42;75.07;;;31.92;;
35326;SDS011;21436;52.348;20.928;2023-02-28T06:51:12;76.82;;;31.75;;
35326;SDS011;21436;52.348;20.928;2023-02-28T06:53:42;75.50;;;30.85;;
35326;SDS011;21436;52.348;20.928;2023-02-28T06:56:11;75.80;;;30.83;;
35326;SDS011;21436;52.348;20.928;2023-02-28T06:58:40;71.90;;;28.70;;
35326;SDS011;21436;52.348;20.928;2023-02-28T07:01:08;73.00;;;29.25;;
35326;SDS011;21436;52.348;20.928;2023-02-28T07:03:36;62.72;;;27.35;;
35326;SDS011;21436;52.348;20.928;2023-02-28T07:06:04;62.78;;;26.98;;
35326;SDS011;21436;52.348;20.928;2023-02-28T07:08:33;66.93;;;27.73;;
35326;SDS011;21436;52.348;20.928;2023-02-28T07:11:01;66.30;;;26.30;;
35326;SDS011;21436;52.348;20.928;2023-02-28T07:13:29;53.60;;;24.08;;
35326;SDS011;21436;52.348;20.928;2023-02-28T07:15:58;53.20;;;22.90;;
35326;SDS011;21436;52.348;20.928;2023-02-28T07:18:27;52.95;;;21.40;;
35326;SDS011;21436;52.348;20.928;2023-02-28T07:20:55;58.20;;;21.08;;
35326;SDS011;21436;52.348;20.928;2023-02-28T07:23:23;47.58;;;20.45;;
35326;SDS011;21436;52.348;20.928;2023-02-28T07:25:51;37.15;;;17.10;;
35326;SDS011;21436;52.348;20.928;2023-02-28T07:28:19;34.47;;;16.10;;
35326;SDS011;21436;52.348;20.928;2023-02-28T07:30:47;38.65;;;14.70;;
35326;SDS011;21436;52.348;20.928;2023-02-28T07:33:15;34.22;;;14.65;;
35326;SDS011;21436;52.348;20.928;2023-02-28T07:35:43;31.63;;;14.77;;
35326;SDS011;21436;52.348;20.928;2023-02-28T07:38:11;30.60;;;13.98;;
35326;SDS011;21436;52.348;20.928;2023-02-28T07:40:41;28.58;;;16.05;;
35326;SDS011;21436;52.348;20.928;2023-02-28T07:43:08;25.15;;;12.80;;
35326;SDS011;21436;52.348;20.928;2023-02-28T07:45:36;25.95;;;11.65;;
35326;SDS011;21436;52.348;20.928;2023-02-28T07:48:04;24.67;;;12.63;;
35326;SDS011;21436;52.348;20.928;2023-02-28T07:50:31;26.27;;;12.98;;
35326;SDS011;21436;52.348;20.928;2023-02-28T07:52:59;22.40;;;11.90;;
35326;SDS011;21436;52.348;20.928;2023-02-28T07:55:27;27.45;;;12.50;;
35326;SDS011;21436;52.348;20.928;2023-02-28T07:57:54;23.83;;;10.68;;
35326;SDS011;21436;52.348;20.928;2023-02-28T08:00:22;19.55;;;10.20;;
35326;SDS011;21436;52.348;20.928;2023-02-28T08:02:50;18.52;;;9.32;;
35326;SDS011;21436;52.348;20.928;2023-02-28T08:05:18;16.42;;;7.65;;
35326;SDS011;21436;52.348;20.928;2023-02-28T08:07:49;11.75;;;6.15;;
35326;SDS011;21436;52.348;20.928;2023-02-28T08:10:17;16.95;;;8.55;;
35326;SDS011;21436;52.348;20.928;2023-02-28T08:12:44;18.25;;;8.60;;
35326;SDS011;21436;52.348;20.928;2023-02-28T08:15:12;17.52;;;9.15;;
35326;SDS011;21436;52.348;20.928;2023-02-28T08:17:39;20.05;;;7.97;;
35326;SDS011;21436;52.348;20.928;2023-02-28T08:20:07;16.10;;;8.75;;
35326;SDS011;21436;52.348;20.928;2023-02-28T08:22:36;20.58;;;9.27;;
35326;SDS011;21436;52.348;20.928;2023-02-28T08:25:03;18.73;;;9.43;;
35326;SDS011;21436;52.348;20.928;2023-02-28T08:27:31;17.58;;;7.90;;
35326;SDS011;21436;52.348;20.928;2023-02-28T08:29:59;12.30;;;7.22;;
35326;SDS011;21436;52.348;20.928;2023-02-28T08:32:26;9.93;;;6.15;;
35326;SDS011;21436;52.348;20.928;2023-02-28T08:34:56;13.13;;;7.13;;
35326;SDS011;21436;52.348;20.928;2023-02-28T08:37:24;16.35;;;8.30;;
35326;SDS011;21436;52.348;20.928;2023-02-28T08:39:52;12.93;;;7.90;;
35326;SDS011;21436;52.348;20.928;2023-02-28T08:42:23;19.13;;;9.93;;
35326;SDS011;21436;52.348;20.928;2023-02-28T08:44:55;19.10;;;9.30;;
35326;SDS011;21436;52.348;20.928;2023-02-28T08:47:22;18.73;;;9.95;;
35326;SDS011;21436;52.348;20.928;2023-02-28T08:49:50;17.85;;;8.82;;
35326;SDS011;21436;52.348;20.928;2023-02-28T08:52:18;19.67;;;8.57;;
35326;SDS011;21436;52.348;20.928;2023-02-28T08:54:45;16.17;;;9.27;;
35326;SDS011;21436;52.348;20.928;2023-02-28T08:57:13;18.02;;;8.80;;
35326;SDS011;21436;52.348;20.928;2023-02-28T08:59:40;20.42;;;9.57;;
35326;SDS011;21436;52.348;20.928;2023-02-28T09:02:08;15.15;;;8.68;;
35326;SDS011;21436;52.348;20.928;2023-02-28T09:04:38;15.35;;;8.77;;
35326;SDS011;21436;52.348;20.928;2023-02-28T09:07:06;18.00;;;8.35;;
35326;SDS011;21436;52.348;20.928;2023-02-28T09:09:34;15.68;;;8.27;;
35326;SDS011;21436;52.348;20.928;2023-02-28T09:12:01;14.15;;;8.05;;
35326;SDS011;21436;52.348;20.928;2023-02-28T09:14:29;14.32;;;7.60;;
35326;SDS011;21436;52.348;20.928;2023-02-28T09:16:56;13.68;;;7.65;;
35326;SDS011;21436;52.348;20.928;2023-02-28T09:19:25;14.25;;;8.48;;
35326;SDS011;21436;52.348;20.928;2023-02-28T09:21:52;17.15;;;8.95;;
35326;SDS011;21436;52.348;20.928;2023-02-28T09:24:20;13.23;;;8.00;;
35326;SDS011;21436;52.348;20.928;2023-02-28T09:26:47;16.40;;;8.50;;
35326;SDS011;21436;52.348;20.928;2023-02-28T09:29:31;14.60;;;7.88;;
35326;SDS011;21436;52.348;20.928;2023-02-28T09:32:00;15.02;;;8.30;;
35326;SDS011;21436;52.348;20.928;2023-02-28T09:34:39;15.80;;;8.45;;
35326;SDS011;21436;52.348;20.928;2023-02-28T09:37:07;17.35;;;8.88;;
35326;SDS011;21436;52.348;20.928;2023-02-28T09:39:34;20.50;;;8.40;;
35326;SDS011;21436;52.348;20.928;2023-02-28T09:42:02;17.38;;;8.32;;
35326;SDS011;21436;52.348;20.928;2023-02-28T09:44:38;18.58;;;9.35;;
35326;SDS011;21436;52.348;20.928;2023-02-28T09:50:30;17.05;;;8.43;;
35326;SDS011;21436;52.348;20.928;2023-02-28T09:53:02;17.08;;;8.48;;
35326;SDS011;21436;52.348;20.928;2023-02-28T09:55:43;14.63;;;8.02;;
35326;SDS011;21436;52.348;20.928;2023-02-28T09:58:33;15.27;;;8.40;;
35326;SDS011;21436;52.348;20.928;2023-02-28T10:06:42;16.55;;;7.90;;
35326;SDS011;21436;52.348;20.928;2023-02-28T10:09:21;17.98;;;9.10;;
35326;SDS011;21436;52.348;20.928;2023-02-28T10:11:56;19.23;;;8.60;;
35326;SDS011;21436;52.348;20.928;2023-02-28T10:14:34;17.42;;;7.88;;
35326;SDS011;21436;52.348;20.928;2023-02-28T10:17:04;17.38;;;8.95;;
35326;SDS011;21436;52.348;20.928;2023-02-28T10:19:40;16.75;;;9.15;;
35326;SDS011;21436;52.348;20.928;2023-02-28T10:22:19;16.42;;;8.20;;
35326;SDS011;21436;52.348;20.928;2023-02-28T10:24:50;15.90;;;8.98;;
35326;SDS011;21436;52.348;20.928;2023-02-28T10:27:20;15.35;;;8.80;;
35326;SDS011;21436;52.348;20.928;2023-02-28T10:29:53;16.13;;;8.75;;
35326;SDS011;21436;52.348;20.928;2023-02-28T10:32:24;19.80;;;9.55;;
35326;SDS011;21436;52.348;20.928;2023-02-28T10:35:16;17.77;;;9.40;;
35326;SDS011;21436;52.348;20.928;2023-02-28T10:37:48;16.60;;;8.77;;
35326;SDS011;21436;52.348;20.928;2023-02-28T10:42:55;19.63;;;9.07;;
35326;SDS011;21436;52.348;20.928;2023-02-28T10:45:22;17.23;;;9.68;;
35326;SDS011;21436;52.348;20.928;2023-02-28T11:01:19;18.45;;;9.38;;
35326;SDS011;21436;52.348;20.928;2023-02-28T11:03:49;15.45;;;8.40;;
35326;SDS011;21436;52.348;20.928;2023-02-28T11:09:04;16.75;;;9.50;;
35326;SDS011;21436;52.348;20.928;2023-02-28T11:11:45;19.60;;;9.43;;
35326;SDS011;21436;52.348;20.928;2023-02-28T11:14:21;22.25;;;10.40;;
35326;SDS011;21436;52.348;20.928;2023-02-28T11:16:51;17.95;;;10.35;;
35326;SDS011;21436;52.348;20.928;2023-02-28T11:19:24;16.88;;;9.48;;
35326;SDS011;21436;52.348;20.928;2023-02-28T11:21:53;17.88;;;9.43;;
35326;SDS011;21436;52.348;20.928;2023-02-28T11:24:26;18.38;;;9.82;;
35326;SDS011;21436;52.348;20.928;2023-02-28T11:26:56;21.08;;;9.32;;
35326;SDS011;21436;52.348;20.928;2023-02-28T11:29:31;17.58;;;9.57;;
35326;SDS011;21436;52.348;20.928;2023-02-28T11:35:00;18.63;;;9.75;;
35326;SDS011;21436;52.348;20.928;2023-02-28T11:37:31;18.80;;;8.97;;
35326;SDS011;21436;52.348;20.928;2023-02-28T11:39:59;18.13;;;8.80;;
35326;SDS011;21436;52.348;20.928;2023-02-28T11:45:04;18.75;;;9.70;;
35326;SDS011;21436;52.348;20.928;2023-02-28T11:56:37;19.13;;;10.02;;
35326;SDS011;21436;52.348;20.928;2023-02-28T12:24:53;17.17;;;8.55;;
35326;SDS011;21436;52.348;20.928;2023-02-28T12:27:26;22.20;;;8.80;;
35326;SDS011;21436;52.348;20.928;2023-02-28T12:30:00;17.95;;;9.65;;
35326;SDS011;21436;52.348;20.928;2023-02-28T12:35:02;17.63;;;8.88;;
35326;SDS011;21436;52.348;20.928;2023-02-28T12:37:35;17.75;;;8.63;;
35326;SDS011;21436;52.348;20.928;2023-02-28T12:40:09;17.65;;;8.50;;
35326;SDS011;21436;52.348;20.928;2023-02-28T12:42:41;17.73;;;8.55;;
35326;SDS011;21436;52.348;20.928;2023-02-28T12:45:16;14.52;;;8.40;;
35326;SDS011;21436;52.348;20.928;2023-02-28T12:47:48;16.20;;;8.23;;
35326;SDS011;21436;52.348;20.928;2023-02-28T12:50:18;15.15;;;7.65;;
35326;SDS011;21436;52.348;20.928;2023-02-28T12:52:49;17.63;;;8.27;;
35326;SDS011;21436;52.348;20.928;2023-02-28T12:55:30;15.38;;;8.18;;
35326;SDS011;21436;52.348;20.928;2023-02-28T13:03:57;16.38;;;8.25;;
35326;SDS011;21436;52.348;20.928;2023-02-28T13:09:57;17.67;;;8.07;;
35326;SDS011;21436;52.348;20.928;2023-02-28T13:12:27;15.95;;;8.63;;
35326;SDS011;21436;52.348;20.928;2023-02-28T13:17:49;16.05;;;8.20;;
35326;SDS011;21436;52.348;20.928;2023-02-28T13:20:23;14.23;;;8.15;;
35326;SDS011;21436;52.348;20.928;2023-02-28T13:22:53;13.80;;;7.05;;
35326;SDS011;21436;52.348;20.928;2023-02-28T13:27:50;15.10;;;6.93;;
35326;SDS011;21436;52.348;20.928;2023-02-28T13:33:35;15.75;;;7.50;;
35326;SDS011;21436;52.348;20.928;2023-02-28T13:38:51;12.48;;;7.63;;
35326;SDS011;21436;52.348;20.928;2023-02-28T13:44:04;15.70;;;7.22;;
35326;SDS011;21436;52.348;20.928;2023-02-28T13:57:09;13.25;;;7.15;;
35326;SDS011;21436;52.348;20.928;2023-02-28T13:59:50;14.75;;;7.00;;
35326;SDS011;21436;52.348;20.928;2023-02-28T14:05:44;14.30;;;7.47;;
35326;SDS011;21436;52.348;20.928;2023-02-28T14:10:45;14.13;;;7.15;;
35326;SDS011;21436;52.348;20.928;2023-02-28T14:16:05;13.75;;;7.35;;
35326;SDS011;21436;52.348;20.928;2023-02-28T14:18:37;13.20;;;7.80;;
35326;SDS011;21436;52.348;20.928;2023-02-28T14:21:14;19.90;;;7.72;;
35326;SDS011;21436;52.348;20.928;2023-02-28T14:26:26;14.52;;;7.38;;
35326;SDS011;21436;52.348;20.928;2023-02-28T14:32:15;14.60;;;6.80;;
35326;SDS011;21436;52.348;20.928;2023-02-28T14:37:53;15.35;;;7.70;;
35326;SDS011;21436;52.348;20.928;2023-02-28T14:40:27;15.75;;;8.05;;
35326;SDS011;21436;52.348;20.928;2023-02-28T14:42:58;14.25;;;7.32;;
35326;SDS011;21436;52.348;20.928;2023-02-28T14:45:29;14.25;;;7.43;;
35326;SDS011;21436;52.348;20.928;2023-02-28T14:47:57;15.57;;;7.40;;
35326;SDS011;21436;52.348;20.928;2023-02-28T14:50:32;13.35;;;7.55;;
35326;SDS011;21436;52.348;20.928;2023-02-28T14:53:02;14.27;;;7.47;;
35326;SDS011;21436;52.348;20.928;2023-02-28T14:55:31;13.70;;;7.35;;
35326;SDS011;21436;52.348;20.928;2023-02-28T14:58:02;15.02;;;7.65;;
35326;SDS011;21436;52.348;20.928;2023-02-28T15:00:34;13.53;;;7.73;;
35326;SDS011;21436;52.348;20.928;2023-02-28T15:03:18;16.27;;;8.38;;
35326;SDS011;21436;52.348;20.928;2023-02-28T15:06:02;15.75;;;7.00;;
35326;SDS011;21436;52.348;20.928;2023-02-28T15:08:31;17.73;;;8.50;;
35326;SDS011;21436;52.348;20.928;2023-02-28T15:11:07;22.23;;;9.07;;
35326;SDS011;21436;52.348;20.928;2023-02-28T15:13:38;20.05;;;9.85;;
35326;SDS011;21436;52.348;20.928;2023-02-28T15:16:09;19.52;;;10.20;;
35326;SDS011;21436;52.348;20.928;2023-02-28T15:21:17;22.15;;;10.18;;
35326;SDS011;21436;52.348;20.928;2023-02-28T15:23:48;16.58;;;8.90;;
35326;SDS011;21436;52.348;20.928;2023-02-28T15:26:19;18.02;;;10.23;;
35326;SDS011;21436;52.348;20.928;2023-02-28T15:28:54;28.77;;;16.33;;
35326;SDS011;21436;52.348;20.928;2023-02-28T15:31:27;47.67;;;26.13;;
35326;SDS011;21436;52.348;20.928;2023-02-28T15:34:26;47.97;;;29.20;;
35326;SDS011;21436;52.348;20.928;2023-02-28T15:39:53;28.90;;;15.02;;
35326;SDS011;21436;52.348;20.928;2023-02-28T15:42:23;25.35;;;16.00;;
35326;SDS011;21436;52.348;20.928;2023-02-28T15:47:23;18.55;;;10.43;;
35326;SDS011;21436;52.348;20.928;2023-02-28T15:49:53;26.02;;;12.77;;
35326;SDS011;21436;52.348;20.928;2023-02-28T15:55:09;28.73;;;16.00;;
35326;SDS011;21436;52.348;20.928;2023-02-28T15:57:39;37.50;;;17.33;;
35326;SDS011;21436;52.348;20.928;2023-02-28T16:00:10;31.08;;;15.93;;
35326;SDS011;21436;52.348;20.928;2023-02-28T16:02:40;32.15;;;16.77;;
35326;SDS011;21436;52.348;20.928;2023-02-28T16:07:40;30.27;;;14.95;;
35326;SDS011;21436;52.348;20.928;2023-02-28T16:10:11;30.25;;;15.75;;
35326;SDS011;21436;52.348;20.928;2023-02-28T16:12:40;26.48;;;13.90;;
35326;SDS011;21436;52.348;20.928;2023-02-28T16:15:15;27.77;;;14.95;;
35326;SDS011;21436;52.348;20.928;2023-02-28T16:17:45;163.40;;;33.95;;
35326;SDS011;21436;52.348;20.928;2023-02-28T16:20:18;191.80;;;51.83;;
35326;SDS011;21436;52.348;20.928;2023-02-28T16:22:53;85.55;;;23.35;;
35326;SDS011;21436;52.348;20.928;2023-02-28T16:25:26;47.30;;;16.23;;
35326;SDS011;21436;52.348;20.928;2023-02-28T16:28:00;40.22;;;16.05;;
35326;SDS011;21436;52.348;20.928;2023-02-28T16:30:28;56.95;;;23.60;;
35326;SDS011;21436;52.348;20.928;2023-02-28T16:32:59;48.50;;;19.20;;
35326;SDS011;21436;52.348;20.928;2023-02-28T16:35:27;108.15;;;42.33;;
35326;SDS011;21436;52.348;20.928;2023-02-28T16:37:54;117.93;;;46.20;;
35326;SDS011;21436;52.348;20.928;2023-02-28T16:40:24;89.60;;;35.00;;
35326;SDS011;21436;52.348;20.928;2023-02-28T16:42:53;66.60;;;24.30;;
35326;SDS011;21436;52.348;20.928;2023-02-28T16:45:24;81.55;;;32.22;;
35326;SDS011;21436;52.348;20.928;2023-02-28T16:47:53;76.05;;;32.35;;
35326;SDS011;21436;52.348;20.928;2023-02-28T16:50:25;64.50;;;24.00;;
35326;SDS011;21436;52.348;20.928;2023-02-28T16:52:54;52.53;;;17.63;;
35326;SDS011;21436;52.348;20.928;2023-02-28T16:55:22;47.33;;;16.02;;
35326;SDS011;21436;52.348;20.928;2023-02-28T16:57:51;40.38;;;13.38;;
35326;SDS011;21436;52.348;20.928;2023-02-28T17:00:23;31.05;;;13.80;;
35326;SDS011;21436;52.348;20.928;2023-02-28T17:02:51;38.35;;;14.20;;
35326;SDS011;21436;52.348;20.928;2023-02-28T17:05:20;32.72;;;14.07;;
35326;SDS011;21436;52.348;20.928;2023-02-28T17:07:48;115.03;;;35.83;;
35326;SDS011;21436;52.348;20.928;2023-02-28T17:10:17;145.15;;;44.40;;
35326;SDS011;21436;52.348;20.928;2023-02-28T17:12:46;155.73;;;47.83;;
35326;SDS011;21436;52.348;20.928;2023-02-28T17:15:15;219.90;;;62.92;;
35326;SDS011;21436;52.348;20.928;2023-02-28T17:17:43;120.38;;;39.53;;
35326;SDS011;21436;52.348;20.928;2023-02-28T17:20:12;100.82;;;36.90;;
35326;SDS011;21436;52.348;20.928;2023-02-28T17:22:44;84.88;;;30.33;;
35326;SDS011;21436;52.348;20.928;2023-02-28T17:25:12;113.63;;;36.80;;
35326;SDS011;21436;52.348;20.928;2023-02-28T17:27:39;90.80;;;29.00;;
35326;SDS011;21436;52.348;20.928;2023-02-28T17:30:14;71.45;;;27.08;;
35326;SDS011;21436;52.348;20.928;2023-02-28T17:32:44;72.10;;;26.35;;
35326;SDS011;21436;52.348;20.928;2023-02-28T17:35:12;61.83;;;24.58;;